sensor_id;sensor_type;location;lat;lon;timestamp;P1;durP1;ratioP1;P2;durP2;ratioP2
19664;SDS011;9980;51.020;7.772;2022-12-05T00:01:26;12.80;;;10.50;;
19664;SDS011;9980;51.020;7.772;2022-12-05T00:04:05;12.10;;;10.17;;
19664;SDS011;9980;51.020;7.772;2022-12-05T00:06:35;12.43;;;10.67;;
19664;SDS011;9980;51.020;7.772;2022-12-05T00:09:04;14.73;;;12.10;;
19664;SDS011;9980;51.020;7.772;2022-12-05T00:11:35;14.20;;;11.40;;
19664;SDS011;9980;51.020;7.772;2022-12-05T00:14:04;11.90;;;9.60;;
19664;SDS011;9980;51.020;7.772;2022-12-05T00:16:34;12.47;;;9.90;;
19664;SDS011;9980;51.020;7.772;2022-12-05T00:19:03;12.57;;;9.00;;
19664;SDS011;9980;51.020;7.772;2022-12-05T00:21:32;13.50;;;10.30;;
19664;SDS011;9980;51.020;7.772;2022-12-05T00:24:01;16.33;;;12.33;;
19664;SDS011;9980;51.020;7.772;2022-12-05T00:26:30;16.07;;;11.80;;
19664;SDS011;9980;51.020;7.772;2022-12-05T00:28:58;12.57;;;10.10;;
19664;SDS011;9980;51.020;7.772;2022-12-05T00:31:24;11.37;;;9.80;;
19664;SDS011;9980;51.020;7.772;2022-12-05T00:33:52;14.23;;;9.70;;
19664;SDS011;9980;51.020;7.772;2022-12-05T00:36:23;14.57;;;11.63;;
19664;SDS011;9980;51.020;7.772;2022-12-05T00:38:53;13.00;;;10.47;;
19664;SDS011;9980;51.020;7.772;2022-12-05T00:41:21;10.93;;;9.80;;
19664;SDS011;9980;51.020;7.772;2022-12-05T00:43:50;11.47;;;9.10;;
19664;SDS011;9980;51.020;7.772;2022-12-05T00:46:18;10.27;;;8.90;;
19664;SDS011;9980;51.020;7.772;2022-12-05T00:48:48;11.17;;;9.23;;
19664;SDS011;9980;51.020;7.772;2022-12-05T00:51:18;11.00;;;9.47;;
19664;SDS011;9980;51.020;7.772;2022-12-05T00:53:54;17.67;;;12.40;;
19664;SDS011;9980;51.020;7.772;2022-12-05T00:56:24;13.97;;;10.80;;
19664;SDS011;9980;51.020;7.772;2022-12-05T00:58:53;18.27;;;12.30;;
19664;SDS011;9980;51.020;7.772;2022-12-05T01:01:22;10.97;;;9.40;;
19664;SDS011;9980;51.020;7.772;2022-12-05T01:03:54;15.30;;;11.60;;
19664;SDS011;9980;51.020;7.772;2022-12-05T01:06:23;15.90;;;12.17;;
19664;SDS011;9980;51.020;7.772;2022-12-05T01:08:51;12.50;;;10.83;;
19664;SDS011;9980;51.020;7.772;2022-12-05T01:11:20;12.13;;;9.53;;
19664;SDS011;9980;51.020;7.772;2022-12-05T01:13:47;13.60;;;10.37;;
19664;SDS011;9980;51.020;7.772;2022-12-05T01:16:25;14.27;;;11.73;;
19664;SDS011;9980;51.020;7.772;2022-12-05T01:18:57;12.70;;;10.87;;
19664;SDS011;9980;51.020;7.772;2022-12-05T01:21:25;14.13;;;11.50;;
19664;SDS011;9980;51.020;7.772;2022-12-05T01:23:51;12.07;;;10.20;;
19664;SDS011;9980;51.020;7.772;2022-12-05T01:26:18;15.90;;;11.23;;
19664;SDS011;9980;51.020;7.772;2022-12-05T01:28:46;17.40;;;12.40;;
19664;SDS011;9980;51.020;7.772;2022-12-05T01:31:20;15.07;;;11.47;;
19664;SDS011;9980;51.020;7.772;2022-12-05T01:33:49;16.27;;;9.93;;
19664;SDS011;9980;51.020;7.772;2022-12-05T01:36:17;19.90;;;13.27;;
19664;SDS011;9980;51.020;7.772;2022-12-05T01:38:44;15.57;;;11.83;;
19664;SDS011;9980;51.020;7.772;2022-12-05T01:41:15;13.40;;;10.37;;
19664;SDS011;9980;51.020;7.772;2022-12-05T01:43:55;10.90;;;9.13;;
19664;SDS011;9980;51.020;7.772;2022-12-05T01:46:27;17.00;;;11.33;;
19664;SDS011;9980;51.020;7.772;2022-12-05T01:49:02;11.00;;;8.93;;
19664;SDS011;9980;51.020;7.772;2022-12-05T01:51:44;16.60;;;12.07;;
19664;SDS011;9980;51.020;7.772;2022-12-05T01:54:15;13.07;;;9.30;;
19664;SDS011;9980;51.020;7.772;2022-12-05T01:56:47;14.30;;;12.07;;
19664;SDS011;9980;51.020;7.772;2022-12-05T01:59:22;16.93;;;13.07;;
19664;SDS011;9980;51.020;7.772;2022-12-05T02:01:51;12.50;;;10.40;;
19664;SDS011;9980;51.020;7.772;2022-12-05T02:04:17;12.77;;;9.23;;
19664;SDS011;9980;51.020;7.772;2022-12-05T02:06:43;11.37;;;9.07;;
19664;SDS011;9980;51.020;7.772;2022-12-05T02:09:11;10.37;;;8.20;;
19664;SDS011;9980;51.020;7.772;2022-12-05T02:11:54;8.83;;;7.50;;
19664;SDS011;9980;51.020;7.772;2022-12-05T02:18:49;13.53;;;10.97;;
19664;SDS011;9980;51.020;7.772;2022-12-05T02:20:57;9.53;;;8.50;;
19664;SDS011;9980;51.020;7.772;2022-12-05T02:23:56;13.57;;;11.10;;
19664;SDS011;9980;51.020;7.772;2022-12-05T02:26:55;13.10;;;10.10;;
19664;SDS011;9980;51.020;7.772;2022-12-05T02:38:34;12.23;;;10.73;;
19664;SDS011;9980;51.020;7.772;2022-12-05T02:44:13;12.07;;;10.30;;
19664;SDS011;9980;51.020;7.772;2022-12-05T02:46:41;12.93;;;10.40;;
19664;SDS011;9980;51.020;7.772;2022-12-05T02:49:12;12.37;;;10.20;;
19664;SDS011;9980;51.020;7.772;2022-12-05T02:51:46;15.27;;;11.63;;
19664;SDS011;9980;51.020;7.772;2022-12-05T02:54:23;13.63;;;11.30;;
19664;SDS011;9980;51.020;7.772;2022-12-05T02:56:56;13.60;;;10.97;;
19664;SDS011;9980;51.020;7.772;2022-12-05T02:59:25;12.80;;;10.73;;
19664;SDS011;9980;51.020;7.772;2022-12-05T03:01:51;13.27;;;11.17;;
19664;SDS011;9980;51.020;7.772;2022-12-05T03:04:18;13.13;;;9.80;;
19664;SDS011;9980;51.020;7.772;2022-12-05T03:06:50;11.07;;;9.63;;
19664;SDS011;9980;51.020;7.772;2022-12-05T03:09:28;10.37;;;9.00;;
19664;SDS011;9980;51.020;7.772;2022-12-05T03:12:15;12.87;;;10.73;;
19664;SDS011;9980;51.020;7.772;2022-12-05T03:15:04;14.40;;;10.83;;
19664;SDS011;9980;51.020;7.772;2022-12-05T03:17:50;13.47;;;11.33;;
19664;SDS011;9980;51.020;7.772;2022-12-05T03:20:35;13.43;;;10.27;;
19664;SDS011;9980;51.020;7.772;2022-12-05T03:23:18;15.43;;;11.83;;
19664;SDS011;9980;51.020;7.772;2022-12-05T03:28:40;13.57;;;10.30;;
19664;SDS011;9980;51.020;7.772;2022-12-05T03:34:19;15.50;;;11.40;;
19664;SDS011;9980;51.020;7.772;2022-12-05T03:37:14;12.03;;;9.70;;
19664;SDS011;9980;51.020;7.772;2022-12-05T03:43:02;15.23;;;10.60;;
19664;SDS011;9980;51.020;7.772;2022-12-05T03:45:39;12.33;;;11.03;;
19664;SDS011;9980;51.020;7.772;2022-12-05T03:48:28;11.67;;;10.13;;
19664;SDS011;9980;51.020;7.772;2022-12-05T03:51:08;13.43;;;10.83;;
19664;SDS011;9980;51.020;7.772;2022-12-05T03:53:43;12.93;;;10.87;;
19664;SDS011;9980;51.020;7.772;2022-12-05T03:56:59;14.00;;;10.37;;
19664;SDS011;9980;51.020;7.772;2022-12-05T04:00:24;12.83;;;10.27;;
19664;SDS011;9980;51.020;7.772;2022-12-05T04:02:41;14.20;;;10.87;;
19664;SDS011;9980;51.020;7.772;2022-12-05T04:05:46;15.10;;;11.10;;
19664;SDS011;9980;51.020;7.772;2022-12-05T04:08:30;10.63;;;9.53;;
19664;SDS011;9980;51.020;7.772;2022-12-05T04:11:12;12.43;;;9.37;;
19664;SDS011;9980;51.020;7.772;2022-12-05T04:14:06;10.63;;;8.90;;
19664;SDS011;9980;51.020;7.772;2022-12-05T04:16:37;14.83;;;11.80;;
19664;SDS011;9980;51.020;7.772;2022-12-05T04:22:41;17.43;;;12.13;;
19664;SDS011;9980;51.020;7.772;2022-12-05T04:25:10;13.07;;;10.27;;
19664;SDS011;9980;51.020;7.772;2022-12-05T04:31:13;12.77;;;9.30;;
19664;SDS011;9980;51.020;7.772;2022-12-05T04:33:51;20.87;;;10.43;;
19664;SDS011;9980;51.020;7.772;2022-12-05T04:37:25;12.27;;;9.70;;
19664;SDS011;9980;51.020;7.772;2022-12-05T04:39:30;15.37;;;11.03;;
19664;SDS011;9980;51.020;7.772;2022-12-05T04:42:08;11.73;;;10.50;;
19664;SDS011;9980;51.020;7.772;2022-12-05T04:44:45;14.57;;;11.77;;
19664;SDS011;9980;51.020;7.772;2022-12-05T04:47:21;13.40;;;10.30;;
19664;SDS011;9980;51.020;7.772;2022-12-05T04:49:53;13.93;;;11.53;;
19664;SDS011;9980;51.020;7.772;2022-12-05T04:52:21;12.90;;;10.47;;
19664;SDS011;9980;51.020;7.772;2022-12-05T04:54:51;13.70;;;10.83;;
19664;SDS011;9980;51.020;7.772;2022-12-05T04:57:43;12.53;;;9.00;;
19664;SDS011;9980;51.020;7.772;2022-12-05T05:00:25;14.53;;;10.63;;
19664;SDS011;9980;51.020;7.772;2022-12-05T05:03:14;12.27;;;10.47;;
19664;SDS011;9980;51.020;7.772;2022-12-05T05:05:49;11.67;;;9.77;;
19664;SDS011;9980;51.020;7.772;2022-12-05T05:08:21;13.77;;;11.13;;
19664;SDS011;9980;51.020;7.772;2022-12-05T05:13:39;12.10;;;9.73;;
19664;SDS011;9980;51.020;7.772;2022-12-05T05:16:05;12.33;;;10.20;;
19664;SDS011;9980;51.020;7.772;2022-12-05T05:18:32;14.73;;;11.10;;
19664;SDS011;9980;51.020;7.772;2022-12-05T05:20:58;13.17;;;10.40;;
19664;SDS011;9980;51.020;7.772;2022-12-05T05:23:25;13.20;;;9.90;;
19664;SDS011;9980;51.020;7.772;2022-12-05T05:25:52;11.30;;;9.73;;
19664;SDS011;9980;51.020;7.772;2022-12-05T05:28:20;12.27;;;10.50;;
19664;SDS011;9980;51.020;7.772;2022-12-05T05:30:47;11.20;;;9.17;;
19664;SDS011;9980;51.020;7.772;2022-12-05T05:33:14;13.50;;;10.93;;
19664;SDS011;9980;51.020;7.772;2022-12-05T05:35:40;13.47;;;10.43;;
19664;SDS011;9980;51.020;7.772;2022-12-05T05:38:07;12.50;;;10.80;;
19664;SDS011;9980;51.020;7.772;2022-12-05T05:40:34;13.27;;;10.60;;
19664;SDS011;9980;51.020;7.772;2022-12-05T05:43:02;11.77;;;9.27;;
19664;SDS011;9980;51.020;7.772;2022-12-05T05:45:28;11.63;;;9.43;;
19664;SDS011;9980;51.020;7.772;2022-12-05T05:47:54;13.30;;;10.53;;
19664;SDS011;9980;51.020;7.772;2022-12-05T05:50:21;17.83;;;12.77;;
19664;SDS011;9980;51.020;7.772;2022-12-05T05:52:50;13.57;;;10.50;;
19664;SDS011;9980;51.020;7.772;2022-12-05T05:55:16;20.07;;;12.30;;
19664;SDS011;9980;51.020;7.772;2022-12-05T05:57:42;19.13;;;13.57;;
19664;SDS011;9980;51.020;7.772;2022-12-05T06:00:09;14.40;;;10.67;;
19664;SDS011;9980;51.020;7.772;2022-12-05T06:02:36;19.03;;;12.90;;
19664;SDS011;9980;51.020;7.772;2022-12-05T06:05:02;16.27;;;12.27;;
19664;SDS011;9980;51.020;7.772;2022-12-05T06:07:29;18.00;;;13.30;;
19664;SDS011;9980;51.020;7.772;2022-12-05T06:09:56;20.67;;;14.67;;
19664;SDS011;9980;51.020;7.772;2022-12-05T06:12:23;19.20;;;14.50;;
19664;SDS011;9980;51.020;7.772;2022-12-05T06:14:49;16.50;;;12.53;;
19664;SDS011;9980;51.020;7.772;2022-12-05T06:17:16;12.20;;;9.57;;
19664;SDS011;9980;51.020;7.772;2022-12-05T06:19:44;16.17;;;12.47;;
19664;SDS011;9980;51.020;7.772;2022-12-05T06:22:11;12.67;;;10.07;;
19664;SDS011;9980;51.020;7.772;2022-12-05T06:24:37;13.27;;;11.20;;
19664;SDS011;9980;51.020;7.772;2022-12-05T06:27:04;10.77;;;9.23;;
19664;SDS011;9980;51.020;7.772;2022-12-05T06:29:33;14.17;;;10.60;;
19664;SDS011;9980;51.020;7.772;2022-12-05T06:32:00;14.47;;;11.67;;
19664;SDS011;9980;51.020;7.772;2022-12-05T06:34:27;13.57;;;11.70;;
19664;SDS011;9980;51.020;7.772;2022-12-05T06:36:53;11.43;;;9.50;;
19664;SDS011;9980;51.020;7.772;2022-12-05T06:39:19;12.70;;;11.10;;
19664;SDS011;9980;51.020;7.772;2022-12-05T06:41:46;11.97;;;9.67;;
19664;SDS011;9980;51.020;7.772;2022-12-05T06:44:12;12.10;;;10.80;;
19664;SDS011;9980;51.020;7.772;2022-12-05T06:46:38;15.10;;;11.87;;
19664;SDS011;9980;51.020;7.772;2022-12-05T06:49:04;9.70;;;8.57;;
19664;SDS011;9980;51.020;7.772;2022-12-05T06:51:30;10.60;;;9.50;;
19664;SDS011;9980;51.020;7.772;2022-12-05T06:53:57;11.20;;;9.33;;
19664;SDS011;9980;51.020;7.772;2022-12-05T06:56:23;10.30;;;9.30;;
19664;SDS011;9980;51.020;7.772;2022-12-05T06:58:49;12.77;;;10.90;;
19664;SDS011;9980;51.020;7.772;2022-12-05T07:01:17;11.77;;;9.83;;
19664;SDS011;9980;51.020;7.772;2022-12-05T07:04:15;12.00;;;10.23;;
19664;SDS011;9980;51.020;7.772;2022-12-05T07:06:45;9.77;;;8.77;;
19664;SDS011;9980;51.020;7.772;2022-12-05T07:09:20;9.60;;;8.60;;
19664;SDS011;9980;51.020;7.772;2022-12-05T07:12:09;14.83;;;12.03;;
19664;SDS011;9980;51.020;7.772;2022-12-05T07:14:39;10.63;;;9.63;;
19664;SDS011;9980;51.020;7.772;2022-12-05T07:17:16;11.80;;;9.93;;
19664;SDS011;9980;51.020;7.772;2022-12-05T07:19:46;12.43;;;11.00;;
19664;SDS011;9980;51.020;7.772;2022-12-05T07:22:14;13.37;;;11.97;;
19664;SDS011;9980;51.020;7.772;2022-12-05T07:24:44;10.17;;;9.17;;
19664;SDS011;9980;51.020;7.772;2022-12-05T07:27:12;10.53;;;9.43;;
19664;SDS011;9980;51.020;7.772;2022-12-05T07:29:40;12.33;;;10.20;;
19664;SDS011;9980;51.020;7.772;2022-12-05T07:32:06;10.87;;;9.53;;
19664;SDS011;9980;51.020;7.772;2022-12-05T07:34:33;18.60;;;10.97;;
19664;SDS011;9980;51.020;7.772;2022-12-05T07:37:00;10.53;;;9.50;;
19664;SDS011;9980;51.020;7.772;2022-12-05T07:39:26;8.93;;;8.03;;
19664;SDS011;9980;51.020;7.772;2022-12-05T07:41:55;12.03;;;10.57;;
19664;SDS011;9980;51.020;7.772;2022-12-05T07:44:21;14.20;;;11.33;;
19664;SDS011;9980;51.020;7.772;2022-12-05T07:46:47;11.93;;;10.33;;
19664;SDS011;9980;51.020;7.772;2022-12-05T07:49:14;10.87;;;9.50;;
19664;SDS011;9980;51.020;7.772;2022-12-05T07:51:40;14.00;;;10.97;;
19664;SDS011;9980;51.020;7.772;2022-12-05T07:54:06;13.73;;;11.47;;
19664;SDS011;9980;51.020;7.772;2022-12-05T07:56:33;15.17;;;11.83;;
19664;SDS011;9980;51.020;7.772;2022-12-05T07:58:59;14.17;;;11.27;;
19664;SDS011;9980;51.020;7.772;2022-12-05T08:01:26;13.70;;;11.23;;
19664;SDS011;9980;51.020;7.772;2022-12-05T08:03:55;18.83;;;14.77;;
19664;SDS011;9980;51.020;7.772;2022-12-05T08:06:27;22.47;;;17.00;;
19664;SDS011;9980;51.020;7.772;2022-12-05T08:08:55;19.10;;;15.53;;
19664;SDS011;9980;51.020;7.772;2022-12-05T08:11:26;21.23;;;16.10;;
19664;SDS011;9980;51.020;7.772;2022-12-05T08:13:55;20.50;;;15.70;;
19664;SDS011;9980;51.020;7.772;2022-12-05T08:16:24;21.23;;;15.97;;
19664;SDS011;9980;51.020;7.772;2022-12-05T08:18:57;19.70;;;15.63;;
19664;SDS011;9980;51.020;7.772;2022-12-05T08:21:29;21.17;;;15.83;;
19664;SDS011;9980;51.020;7.772;2022-12-05T08:23:56;18.97;;;14.63;;
19664;SDS011;9980;51.020;7.772;2022-12-05T08:26:24;19.60;;;13.93;;
19664;SDS011;9980;51.020;7.772;2022-12-05T08:28:53;15.63;;;12.60;;
19664;SDS011;9980;51.020;7.772;2022-12-05T08:31:44;17.73;;;12.93;;
19664;SDS011;9980;51.020;7.772;2022-12-05T08:34:13;15.17;;;12.10;;
19664;SDS011;9980;51.020;7.772;2022-12-05T08:36:42;11.87;;;10.63;;
19664;SDS011;9980;51.020;7.772;2022-12-05T08:39:11;13.03;;;11.10;;
19664;SDS011;9980;51.020;7.772;2022-12-05T08:41:43;14.03;;;11.30;;
19664;SDS011;9980;51.020;7.772;2022-12-05T08:44:12;9.63;;;8.63;;
19664;SDS011;9980;51.020;7.772;2022-12-05T08:46:43;15.87;;;12.07;;
19664;SDS011;9980;51.020;7.772;2022-12-05T08:49:13;13.10;;;10.97;;
19664;SDS011;9980;51.020;7.772;2022-12-05T08:51:40;14.40;;;10.93;;
19664;SDS011;9980;51.020;7.772;2022-12-05T08:54:07;12.73;;;11.10;;
19664;SDS011;9980;51.020;7.772;2022-12-05T08:56:34;13.47;;;10.87;;
19664;SDS011;9980;51.020;7.772;2022-12-05T08:59:00;13.17;;;11.37;;
19664;SDS011;9980;51.020;7.772;2022-12-05T09:01:31;12.80;;;10.87;;
19664;SDS011;9980;51.020;7.772;2022-12-05T09:03:59;13.83;;;10.97;;
19664;SDS011;9980;51.020;7.772;2022-12-05T09:06:27;11.50;;;10.30;;
19664;SDS011;9980;51.020;7.772;2022-12-05T09:08:58;15.47;;;12.00;;
19664;SDS011;9980;51.020;7.772;2022-12-05T09:11:30;13.33;;;11.73;;
19664;SDS011;9980;51.020;7.772;2022-12-05T09:14:00;15.40;;;12.10;;
19664;SDS011;9980;51.020;7.772;2022-12-05T09:16:31;13.57;;;11.30;;
19664;SDS011;9980;51.020;7.772;2022-12-05T09:19:10;11.73;;;10.50;;
19664;SDS011;9980;51.020;7.772;2022-12-05T09:21:40;11.43;;;10.03;;
19664;SDS011;9980;51.020;7.772;2022-12-05T09:24:10;12.67;;;10.73;;
19664;SDS011;9980;51.020;7.772;2022-12-05T09:26:38;13.53;;;10.83;;
19664;SDS011;9980;51.020;7.772;2022-12-05T09:29:05;10.10;;;9.10;;
19664;SDS011;9980;51.020;7.772;2022-12-05T09:31:40;10.30;;;8.47;;
19664;SDS011;9980;51.020;7.772;2022-12-05T09:34:07;10.60;;;9.50;;
19664;SDS011;9980;51.020;7.772;2022-12-05T09:36:34;10.27;;;9.23;;
19664;SDS011;9980;51.020;7.772;2022-12-05T09:39:03;11.90;;;10.40;;
19664;SDS011;9980;51.020;7.772;2022-12-05T09:44:40;13.73;;;11.23;;
19664;SDS011;9980;51.020;7.772;2022-12-05T09:49:56;10.47;;;9.47;;
19664;SDS011;9980;51.020;7.772;2022-12-05T09:55:46;10.77;;;9.67;;
19664;SDS011;9980;51.020;7.772;2022-12-05T09:58:19;9.93;;;8.93;;
19664;SDS011;9980;51.020;7.772;2022-12-05T10:00:50;9.10;;;8.20;;
19664;SDS011;9980;51.020;7.772;2022-12-05T10:06:12;16.20;;;12.87;;
19664;SDS011;9980;51.020;7.772;2022-12-05T10:11:54;13.57;;;11.23;;
19664;SDS011;9980;51.020;7.772;2022-12-05T10:17:34;13.17;;;10.60;;
19664;SDS011;9980;51.020;7.772;2022-12-05T10:20:25;16.90;;;11.63;;
19664;SDS011;9980;51.020;7.772;2022-12-05T10:23:23;15.63;;;12.07;;
19664;SDS011;9980;51.020;7.772;2022-12-05T10:26:16;16.73;;;12.33;;
19664;SDS011;9980;51.020;7.772;2022-12-05T10:28:56;22.40;;;16.33;;
19664;SDS011;9980;51.020;7.772;2022-12-05T10:31:31;20.93;;;16.77;;
19664;SDS011;9980;51.020;7.772;2022-12-05T10:34:03;17.50;;;14.47;;
19664;SDS011;9980;51.020;7.772;2022-12-05T10:37:09;18.77;;;14.60;;
19664;SDS011;9980;51.020;7.772;2022-12-05T10:39:49;14.77;;;12.33;;
19664;SDS011;9980;51.020;7.772;2022-12-05T10:42:30;13.87;;;11.80;;
19664;SDS011;9980;51.020;7.772;2022-12-05T10:45:34;13.27;;;11.17;;
19664;SDS011;9980;51.020;7.772;2022-12-05T10:47:53;9.90;;;9.00;;
19664;SDS011;9980;51.020;7.772;2022-12-05T10:52:58;9.67;;;8.67;;
19664;SDS011;9980;51.020;7.772;2022-12-05T10:55:29;9.80;;;8.77;;
19664;SDS011;9980;51.020;7.772;2022-12-05T10:58:11;10.03;;;9.03;;
19664;SDS011;9980;51.020;7.772;2022-12-05T11:00:43;10.23;;;9.23;;
19664;SDS011;9980;51.020;7.772;2022-12-05T11:03:21;11.53;;;9.83;;
19664;SDS011;9980;51.020;7.772;2022-12-05T11:06:03;12.60;;;10.80;;
19664;SDS011;9980;51.020;7.772;2022-12-05T11:08:41;14.97;;;11.10;;
19664;SDS011;9980;51.020;7.772;2022-12-05T11:11:32;15.73;;;11.77;;
19664;SDS011;9980;51.020;7.772;2022-12-05T11:14:00;15.03;;;12.37;;
19664;SDS011;9980;51.020;7.772;2022-12-05T11:16:37;12.53;;;10.10;;
19664;SDS011;9980;51.020;7.772;2022-12-05T11:22:04;20.23;;;16.37;;
19664;SDS011;9980;51.020;7.772;2022-12-05T11:24:34;16.57;;;12.23;;
19664;SDS011;9980;51.020;7.772;2022-12-05T11:27:49;20.70;;;16.07;;
19664;SDS011;9980;51.020;7.772;2022-12-05T11:32:38;20.63;;;15.20;;
19664;SDS011;9980;51.020;7.772;2022-12-05T11:37:43;16.73;;;12.30;;
19664;SDS011;9980;51.020;7.772;2022-12-05T11:40:34;19.70;;;12.87;;
19664;SDS011;9980;51.020;7.772;2022-12-05T11:43:14;18.10;;;13.80;;
19664;SDS011;9980;51.020;7.772;2022-12-05T11:45:56;16.83;;;12.37;;
19664;SDS011;9980;51.020;7.772;2022-12-05T11:52:25;27.50;;;19.33;;
19664;SDS011;9980;51.020;7.772;2022-12-05T11:55:23;17.27;;;13.23;;
19664;SDS011;9980;51.020;7.772;2022-12-05T11:58:36;16.57;;;13.13;;
19664;SDS011;9980;51.020;7.772;2022-12-05T12:31:23;25.60;;;17.70;;
19664;SDS011;9980;51.020;7.772;2022-12-05T12:34:15;18.17;;;12.73;;
19664;SDS011;9980;51.020;7.772;2022-12-05T12:40:20;16.00;;;12.03;;
19664;SDS011;9980;51.020;7.772;2022-12-05T12:43:16;19.90;;;11.77;;
19664;SDS011;9980;51.020;7.772;2022-12-05T12:46:36;13.07;;;10.43;;
19664;SDS011;9980;51.020;7.772;2022-12-05T12:49:54;18.23;;;12.50;;
19664;SDS011;9980;51.020;7.772;2022-12-05T12:52:49;16.03;;;12.20;;
19664;SDS011;9980;51.020;7.772;2022-12-05T13:01:19;16.57;;;12.63;;
19664;SDS011;9980;51.020;7.772;2022-12-05T13:04:11;13.90;;;10.93;;
19664;SDS011;9980;51.020;7.772;2022-12-05T13:06:59;14.13;;;11.37;;
19664;SDS011;9980;51.020;7.772;2022-12-05T13:09:54;14.93;;;11.00;;
19664;SDS011;9980;51.020;7.772;2022-12-05T13:12:26;14.77;;;10.77;;
19664;SDS011;9980;51.020;7.772;2022-12-05T13:14:58;15.33;;;12.17;;
19664;SDS011;9980;51.020;7.772;2022-12-05T13:17:31;15.97;;;12.10;;
19664;SDS011;9980;51.020;7.772;2022-12-05T13:19:58;17.33;;;12.63;;
19664;SDS011;9980;51.020;7.772;2022-12-05T13:22:26;20.87;;;13.43;;
19664;SDS011;9980;51.020;7.772;2022-12-05T13:24:53;16.83;;;12.67;;
19664;SDS011;9980;51.020;7.772;2022-12-05T13:27:22;15.07;;;11.30;;
19664;SDS011;9980;51.020;7.772;2022-12-05T13:29:57;17.87;;;12.90;;
19664;SDS011;9980;51.020;7.772;2022-12-05T13:32:31;22.57;;;13.60;;
19664;SDS011;9980;51.020;7.772;2022-12-05T13:41:37;19.57;;;11.97;;
19664;SDS011;9980;51.020;7.772;2022-12-05T13:44:27;20.40;;;13.03;;
19664;SDS011;9980;51.020;7.772;2022-12-05T13:47:01;14.83;;;10.03;;
19664;SDS011;9980;51.020;7.772;2022-12-05T13:49:47;20.43;;;14.70;;
19664;SDS011;9980;51.020;7.772;2022-12-05T13:52:21;18.27;;;13.30;;
19664;SDS011;9980;51.020;7.772;2022-12-05T13:55:19;15.40;;;12.30;;
19664;SDS011;9980;51.020;7.772;2022-12-05T14:00:48;16.17;;;12.07;;
19664;SDS011;9980;51.020;7.772;2022-12-05T14:03:17;15.83;;;12.00;;
19664;SDS011;9980;51.020;7.772;2022-12-05T14:06:11;15.47;;;11.57;;
19664;SDS011;9980;51.020;7.772;2022-12-05T14:17:30;17.20;;;12.40;;
19664;SDS011;9980;51.020;7.772;2022-12-05T14:23:35;24.13;;;14.17;;
19664;SDS011;9980;51.020;7.772;2022-12-05T14:26:27;19.43;;;13.50;;
19664;SDS011;9980;51.020;7.772;2022-12-05T14:29:23;25.73;;;12.17;;
19664;SDS011;9980;51.020;7.772;2022-12-05T14:32:30;17.30;;;12.00;;
19664;SDS011;9980;51.020;7.772;2022-12-05T14:40:38;19.53;;;11.83;;
19664;SDS011;9980;51.020;7.772;2022-12-05T14:45:59;18.73;;;13.17;;
19664;SDS011;9980;51.020;7.772;2022-12-05T14:48:32;20.97;;;13.10;;
19664;SDS011;9980;51.020;7.772;2022-12-05T14:54:09;17.20;;;11.53;;
19664;SDS011;9980;51.020;7.772;2022-12-05T14:56:43;17.03;;;11.47;;
19664;SDS011;9980;51.020;7.772;2022-12-05T15:02:35;28.00;;;12.83;;
19664;SDS011;9980;51.020;7.772;2022-12-05T15:07:53;33.23;;;12.60;;
19664;SDS011;9980;51.020;7.772;2022-12-05T15:13:06;22.97;;;13.73;;
19664;SDS011;9980;51.020;7.772;2022-12-05T15:15:43;20.23;;;11.23;;
19664;SDS011;9980;51.020;7.772;2022-12-05T15:18:22;19.27;;;11.23;;
19664;SDS011;9980;51.020;7.772;2022-12-05T15:23:52;26.93;;;13.73;;
19664;SDS011;9980;51.020;7.772;2022-12-05T15:26:24;33.23;;;14.23;;
19664;SDS011;9980;51.020;7.772;2022-12-05T15:29:15;26.07;;;13.90;;
19664;SDS011;9980;51.020;7.772;2022-12-05T15:31:49;21.67;;;12.73;;
19664;SDS011;9980;51.020;7.772;2022-12-05T15:35:00;19.47;;;11.23;;
19664;SDS011;9980;51.020;7.772;2022-12-05T15:37:33;16.87;;;12.77;;
19664;SDS011;9980;51.020;7.772;2022-12-05T15:40:15;19.37;;;12.07;;
19664;SDS011;9980;51.020;7.772;2022-12-05T15:42:50;13.83;;;10.67;;
19664;SDS011;9980;51.020;7.772;2022-12-05T15:47:53;27.23;;;14.37;;
19664;SDS011;9980;51.020;7.772;2022-12-05T15:50:38;22.97;;;12.43;;
19664;SDS011;9980;51.020;7.772;2022-12-05T15:53:26;32.23;;;13.77;;
19664;SDS011;9980;51.020;7.772;2022-12-05T16:01:27;27.53;;;15.37;;
19664;SDS011;9980;51.020;7.772;2022-12-05T16:03:55;24.53;;;15.27;;
19664;SDS011;9980;51.020;7.772;2022-12-05T16:06:26;27.60;;;17.70;;
19664;SDS011;9980;51.020;7.772;2022-12-05T16:09:04;30.43;;;16.23;;
19664;SDS011;9980;51.020;7.772;2022-12-05T16:11:37;34.10;;;16.97;;
19664;SDS011;9980;51.020;7.772;2022-12-05T16:14:03;35.57;;;15.10;;
19664;SDS011;9980;51.020;7.772;2022-12-05T16:16:33;27.50;;;12.80;;
19664;SDS011;9980;51.020;7.772;2022-12-05T16:19:11;31.73;;;13.53;;
19664;SDS011;9980;51.020;7.772;2022-12-05T16:21:42;22.10;;;12.60;;
19664;SDS011;9980;51.020;7.772;2022-12-05T16:24:21;18.57;;;13.10;;
19664;SDS011;9980;51.020;7.772;2022-12-05T16:27:02;17.73;;;12.80;;
19664;SDS011;9980;51.020;7.772;2022-12-05T16:29:42;18.13;;;13.63;;
19664;SDS011;9980;51.020;7.772;2022-12-05T16:32:20;24.50;;;13.43;;
19664;SDS011;9980;51.020;7.772;2022-12-05T16:34:49;19.27;;;13.53;;
19664;SDS011;9980;51.020;7.772;2022-12-05T16:37:25;13.60;;;11.17;;
19664;SDS011;9980;51.020;7.772;2022-12-05T16:39:54;14.93;;;11.53;;
19664;SDS011;9980;51.020;7.772;2022-12-05T16:42:22;13.87;;;10.73;;
19664;SDS011;9980;51.020;7.772;2022-12-05T16:44:55;15.10;;;11.07;;
19664;SDS011;9980;51.020;7.772;2022-12-05T16:50:30;12.13;;;9.47;;
19664;SDS011;9980;51.020;7.772;2022-12-05T16:53:21;10.37;;;9.30;;
19664;SDS011;9980;51.020;7.772;2022-12-05T16:55:57;12.50;;;10.67;;
19664;SDS011;9980;51.020;7.772;2022-12-05T16:58:26;13.17;;;10.73;;
19664;SDS011;9980;51.020;7.772;2022-12-05T17:03:47;11.50;;;9.63;;
19664;SDS011;9980;51.020;7.772;2022-12-05T17:06:21;13.43;;;11.70;;
19664;SDS011;9980;51.020;7.772;2022-12-05T17:08:50;14.40;;;11.10;;
19664;SDS011;9980;51.020;7.772;2022-12-05T17:11:25;11.00;;;8.83;;
19664;SDS011;9980;51.020;7.772;2022-12-05T17:13:56;11.97;;;10.20;;
19664;SDS011;9980;51.020;7.772;2022-12-05T17:16:24;9.17;;;8.20;;
19664;SDS011;9980;51.020;7.772;2022-12-05T17:18:51;14.97;;;10.57;;
19664;SDS011;9980;51.020;7.772;2022-12-05T17:21:18;10.67;;;8.67;;
19664;SDS011;9980;51.020;7.772;2022-12-05T17:23:49;10.00;;;8.97;;
19664;SDS011;9980;51.020;7.772;2022-12-05T17:26:17;14.47;;;11.90;;
19664;SDS011;9980;51.020;7.772;2022-12-05T17:28:47;9.67;;;8.67;;
19664;SDS011;9980;51.020;7.772;2022-12-05T17:31:16;12.90;;;10.83;;
19664;SDS011;9980;51.020;7.772;2022-12-05T17:33:46;11.80;;;9.77;;
19664;SDS011;9980;51.020;7.772;2022-12-05T17:36:13;11.93;;;10.03;;
19664;SDS011;9980;51.020;7.772;2022-12-05T17:38:41;8.63;;;7.83;;
19664;SDS011;9980;51.020;7.772;2022-12-05T17:41:15;11.17;;;9.67;;
19664;SDS011;9980;51.020;7.772;2022-12-05T17:43:44;9.80;;;8.80;;
19664;SDS011;9980;51.020;7.772;2022-12-05T17:46:16;12.07;;;9.67;;
19664;SDS011;9980;51.020;7.772;2022-12-05T17:48:45;10.83;;;9.53;;
19664;SDS011;9980;51.020;7.772;2022-12-05T17:51:12;8.90;;;8.00;;
19664;SDS011;9980;51.020;7.772;2022-12-05T17:53:39;8.27;;;7.47;;
19664;SDS011;9980;51.020;7.772;2022-12-05T17:56:07;11.00;;;9.10;;
19664;SDS011;9980;51.020;7.772;2022-12-05T17:58:33;10.13;;;9.13;;
19664;SDS011;9980;51.020;7.772;2022-12-05T18:01:00;10.00;;;9.00;;
19664;SDS011;9980;51.020;7.772;2022-12-05T18:03:27;9.23;;;8.33;;
19664;SDS011;9980;51.020;7.772;2022-12-05T18:05:54;10.10;;;8.43;;